<?xml version="1.0" encoding="UTF-8"?>
<gpx xmlns="http://www.topografix.com/GPX/1/1" xmlns:xsi="http://www.w3.org/2001/XMLSchema-instance" version="1.1" xsi:schemaLocation="http://www.topografix.com/GPX/1/1 http://www.topografix.com/GPX/1/1/gpx.xsd">
  <metadata>
    <name>Baltimore Triathlon Festival</name>
  </metadata>
  <trk>
    <name>Baltimore Triathlon Festival</name>
    <trkseg>
      <trkpt lat="39.362683" lon="-76.342216">
        <ele>9.612595</ele>
        <time>2024-10-05T08:14:10.000Z</time>
      </trkpt>
      <trkpt lat="39.362663" lon="-76.342275">
        <ele>9.6126</ele>
        <time>2024-10-05T08:14:11.000Z</time>
      </trkpt>
      <trkpt lat="39.362661" lon="-76.34238">
        <ele>9.612597</ele>
        <time>2024-10-05T08:14:12.000Z</time>
      </trkpt>
      <trkpt lat="39.362818" lon="-76.342519">
        <ele>9.612598</ele>
        <time>2024-10-05T08:14:14.000Z</time>
      </trkpt>
      <trkpt lat="39.362959" lon="-76.342611">
        <ele>9.612593</ele>
        <time>2024-10-05T08:14:16.000Z</time>
      </trkpt>
      <trkpt lat="39.362866" lon="-76.342812">
        <ele>9.612587</ele>
        <time>2024-10-05T08:14:18.000Z</time>
      </trkpt>
      <trkpt lat="39.362731" lon="-76.342937">
        <ele>9.612588</ele>
        <time>2024-10-05T08:14:20.000Z</time>
      </trkpt>
      <trkpt lat="39.362394" lon="-76.342997">
        <ele>9.492182</ele>
        <time>2024-10-05T08:14:24.000Z</time>
      </trkpt>
      <trkpt lat="39.362406" lon="-76.343476">
        <ele>9.318172</ele>
        <time>2024-10-05T08:14:28.000Z</time>
      </trkpt>
      <trkpt lat="39.362442" lon="-76.34364">
        <ele>9.253667</ele>
        <time>2024-10-05T08:14:29.000Z</time>
      </trkpt>
      <trkpt lat="39.362489" lon="-76.343777">
        <ele>9.197781</ele>
        <time>2024-10-05T08:14:30.000Z</time>
      </trkpt>
      <trkpt lat="39.362632" lon="-76.343938">
        <ele>9.113217</ele>
        <time>2024-10-05T08:14:32.000Z</time>
      </trkpt>
      <trkpt lat="39.363275" lon="-76.344278">
        <ele>8.783058</ele>
        <time>2024-10-05T08:14:40.000Z</time>
      </trkpt>
      <trkpt lat="39.36336" lon="-76.344357">
        <ele>8.712789</ele>
        <time>2024-10-05T08:14:41.000Z</time>
      </trkpt>
      <trkpt lat="39.363499" lon="-76.344565">
        <ele>8.520181</ele>
        <time>2024-10-05T08:14:43.000Z</time>
      </trkpt>
      <trkpt lat="39.363587" lon="-76.34479">
        <ele>8.343323</ele>
        <time>2024-10-05T08:14:45.000Z</time>
      </trkpt>
      <trkpt lat="39.363634" lon="-76.345042">
        <ele>8.167935</ele>
        <time>2024-10-05T08:14:47.000Z</time>
      </trkpt>
      <trkpt lat="39.363631" lon="-76.345373">
        <ele>7.947388</ele>
        <time>2024-10-05T08:14:50.000Z</time>
      </trkpt>
      <trkpt lat="39.363585" lon="-76.34557">
        <ele>7.812732</ele>
        <time>2024-10-05T08:14:52.000Z</time>
      </trkpt>
      <trkpt lat="39.363504" lon="-76.345799">
        <ele>7.640316</ele>
        <time>2024-10-05T08:14:54.000Z</time>
      </trkpt>
      <trkpt lat="39.363352" lon="-76.346004">
        <ele>7.452566</ele>
        <time>2024-10-05T08:14:56.000Z</time>
      </trkpt>
      <trkpt lat="39.363123" lon="-76.346182">
        <ele>7.21944</ele>
        <time>2024-10-05T08:14:59.000Z</time>
      </trkpt>
      <trkpt lat="39.362938" lon="-76.346239">
        <ele>7.126309</ele>
        <time>2024-10-05T08:15:01.000Z</time>
      </trkpt>
      <trkpt lat="39.36217" lon="-76.346326">
        <ele>6.844128</ele>
        <time>2024-10-05T08:15:10.000Z</time>
      </trkpt>
      <trkpt lat="39.362059" lon="-76.346376">
        <ele>6.798083</ele>
        <time>2024-10-05T08:15:11.000Z</time>
      </trkpt>
      <trkpt lat="39.361883" lon="-76.346557">
        <ele>6.715044</ele>
        <time>2024-10-05T08:15:14.000Z</time>
      </trkpt>
      <trkpt lat="39.361782" lon="-76.346725">
        <ele>6.655443</ele>
        <time>2024-10-05T08:15:16.000Z</time>
      </trkpt>
      <trkpt lat="39.361736" lon="-76.346872">
        <ele>6.60735</ele>
        <time>2024-10-05T08:15:17.000Z</time>
      </trkpt>
      <trkpt lat="39.361705" lon="-76.347064">
        <ele>6.552284</ele>
        <time>2024-10-05T08:15:19.000Z</time>
      </trkpt>
      <trkpt lat="39.361737" lon="-76.347309">
        <ele>6.468055</ele>
        <time>2024-10-05T08:15:21.000Z</time>
      </trkpt>
      <trkpt lat="39.361909" lon="-76.347836">
        <ele>6.266095</ele>
        <time>2024-10-05T08:15:26.000Z</time>
      </trkpt>
      <trkpt lat="39.362057" lon="-76.348241">
        <ele>6.104503</ele>
        <time>2024-10-05T08:15:30.000Z</time>
      </trkpt>
      <trkpt lat="39.362098" lon="-76.348561">
        <ele>5.985951</ele>
        <time>2024-10-05T08:15:33.000Z</time>
      </trkpt>
      <trkpt lat="39.362107" lon="-76.348739">
        <ele>5.920486</ele>
        <time>2024-10-05T08:15:35.000Z</time>
      </trkpt>
      <trkpt lat="39.36209" lon="-76.348978">
        <ele>5.834533</ele>
        <time>2024-10-05T08:15:37.000Z</time>
      </trkpt>
      <trkpt lat="39.361996" lon="-76.349366">
        <ele>5.694008</ele>
        <time>2024-10-05T08:15:40.000Z</time>
      </trkpt>
      <trkpt lat="39.361954" lon="-76.349489">
        <ele>5.654842</ele>
        <time>2024-10-05T08:15:41.000Z</time>
      </trkpt>
      <trkpt lat="39.361831" lon="-76.349651">
        <ele>5.591019</ele>
        <time>2024-10-05T08:15:43.000Z</time>
      </trkpt>
      <trkpt lat="39.361027" lon="-76.350765">
        <ele>5.16986</ele>
        <time>2024-10-05T08:15:56.000Z</time>
      </trkpt>
      <trkpt lat="39.361145" lon="-76.350895">
        <ele>5.113061</ele>
        <time>2024-10-05T08:15:58.000Z</time>
      </trkpt>
      <trkpt lat="39.361316" lon="-76.351145">
        <ele>5.063603</ele>
        <time>2024-10-05T08:16:01.000Z</time>
      </trkpt>
      <trkpt lat="39.361469" lon="-76.351427">
        <ele>5.179103</ele>
        <time>2024-10-05T08:16:04.000Z</time>
      </trkpt>
      <trkpt lat="39.361539" lon="-76.351703">
        <ele>5.278603</ele>
        <time>2024-10-05T08:16:06.000Z</time>
      </trkpt>
      <trkpt lat="39.361561" lon="-76.352015">
        <ele>5.387832</ele>
        <time>2024-10-05T08:16:09.000Z</time>
      </trkpt>
      <trkpt lat="39.361551" lon="-76.352233">
        <ele>5.46531</ele>
        <time>2024-10-05T08:16:11.000Z</time>
      </trkpt>
      <trkpt lat="39.361554" lon="-76.352241">
        <ele>5.466009</ele>
        <time>2024-10-05T08:16:11.000Z</time>
      </trkpt>
      <trkpt lat="39.361444" lon="-76.352845">
        <ele>5.683013</ele>
        <time>2024-10-05T08:16:16.000Z</time>
      </trkpt>
      <trkpt lat="39.361453" lon="-76.353037">
        <ele>5.751071</ele>
        <time>2024-10-05T08:16:18.000Z</time>
      </trkpt>
      <trkpt lat="39.36144" lon="-76.353232">
        <ele>5.81494</ele>
        <time>2024-10-05T08:16:20.000Z</time>
      </trkpt>
      <trkpt lat="39.361473" lon="-76.353613">
        <ele>5.913036</ele>
        <time>2024-10-05T08:16:23.000Z</time>
      </trkpt>
      <trkpt lat="39.36172" lon="-76.354358">
        <ele>6.087811</ele>
        <time>2024-10-05T08:16:30.000Z</time>
      </trkpt>
      <trkpt lat="39.362026" lon="-76.355281">
        <ele>6.308463</ele>
        <time>2024-10-05T08:16:39.000Z</time>
      </trkpt>
      <trkpt lat="39.362104" lon="-76.355606">
        <ele>6.332478</ele>
        <time>2024-10-05T08:16:42.000Z</time>
      </trkpt>
      <trkpt lat="39.362123" lon="-76.356113">
        <ele>6.245703</ele>
        <time>2024-10-05T08:16:46.000Z</time>
      </trkpt>
      <trkpt lat="39.362082" lon="-76.356336">
        <ele>6.206889</ele>
        <time>2024-10-05T08:16:48.000Z</time>
      </trkpt>
      <trkpt lat="39.36198" lon="-76.356804">
        <ele>6.124107</ele>
        <time>2024-10-05T08:16:52.000Z</time>
      </trkpt>
      <trkpt lat="39.361984" lon="-76.356794">
        <ele>6.123548</ele>
        <time>2024-10-05T08:16:52.000Z</time>
      </trkpt>
      <trkpt lat="39.361839" lon="-76.357068">
        <ele>6.067542</ele>
        <time>2024-10-05T08:16:55.000Z</time>
      </trkpt>
      <trkpt lat="39.361684" lon="-76.357319">
        <ele>6.01367</ele>
        <time>2024-10-05T08:16:58.000Z</time>
      </trkpt>
      <trkpt lat="39.361145" lon="-76.357988">
        <ele>5.770347</ele>
        <time>2024-10-05T08:17:06.000Z</time>
      </trkpt>
      <trkpt lat="39.361817" lon="-76.358579">
        <ele>5.467706</ele>
        <time>2024-10-05T08:17:15.000Z</time>
      </trkpt>
      <trkpt lat="39.361928" lon="-76.358701">
        <ele>5.411047</ele>
        <time>2024-10-05T08:17:17.000Z</time>
      </trkpt>
      <trkpt lat="39.362092" lon="-76.359001">
        <ele>5.304198</ele>
        <time>2024-10-05T08:17:20.000Z</time>
      </trkpt>
      <trkpt lat="39.362166" lon="-76.359197">
        <ele>5.262497</ele>
        <time>2024-10-05T08:17:22.000Z</time>
      </trkpt>
      <trkpt lat="39.36221" lon="-76.359499">
        <ele>5.212863</ele>
        <time>2024-10-05T08:17:25.000Z</time>
      </trkpt>
      <trkpt lat="39.362202" lon="-76.359751">
        <ele>5.170901</ele>
        <time>2024-10-05T08:17:27.000Z</time>
      </trkpt>
      <trkpt lat="39.362211" lon="-76.360186">
        <ele>5.102375</ele>
        <time>2024-10-05T08:17:31.000Z</time>
      </trkpt>
      <trkpt lat="39.362189" lon="-76.360605">
        <ele>5.036321</ele>
        <time>2024-10-05T08:17:35.000Z</time>
      </trkpt>
      <trkpt lat="39.362206" lon="-76.361375">
        <ele>4.913772</ele>
        <time>2024-10-05T08:17:42.000Z</time>
      </trkpt>
      <trkpt lat="39.363125" lon="-76.361164">
        <ele>5.251389</ele>
        <time>2024-10-05T08:17:52.000Z</time>
      </trkpt>
      <trkpt lat="39.363399" lon="-76.36103">
        <ele>5.354346</ele>
        <time>2024-10-05T08:17:55.000Z</time>
      </trkpt>
      <trkpt lat="39.363534" lon="-76.360926">
        <ele>5.409254</ele>
        <time>2024-10-05T08:17:57.000Z</time>
      </trkpt>
      <trkpt lat="39.363696" lon="-76.360765">
        <ele>5.485849</ele>
        <time>2024-10-05T08:17:59.000Z</time>
      </trkpt>
      <trkpt lat="39.363934" lon="-76.360471">
        <ele>5.571576</ele>
        <time>2024-10-05T08:18:03.000Z</time>
      </trkpt>
      <trkpt lat="39.364224" lon="-76.360122">
        <ele>5.600001</ele>
        <time>2024-10-05T08:18:07.000Z</time>
      </trkpt>
      <trkpt lat="39.364502" lon="-76.359797">
        <ele>5.626548</ele>
        <time>2024-10-05T08:18:11.000Z</time>
      </trkpt>
      <trkpt lat="39.364776" lon="-76.359431">
        <ele>5.655131</ele>
        <time>2024-10-05T08:18:15.000Z</time>
      </trkpt>
      <trkpt lat="39.365061" lon="-76.359055">
        <ele>5.683542</ele>
        <time>2024-10-05T08:18:20.000Z</time>
      </trkpt>
      <trkpt lat="39.365305" lon="-76.358647">
        <ele>5.648874</ele>
        <time>2024-10-05T08:18:24.000Z</time>
      </trkpt>
      <trkpt lat="39.366051" lon="-76.357533">
        <ele>5.479432</ele>
        <time>2024-10-05T08:18:37.000Z</time>
      </trkpt>
      <trkpt lat="39.366588" lon="-76.356833">
        <ele>5.482419</ele>
        <time>2024-10-05T08:18:45.000Z</time>
      </trkpt>
      <trkpt lat="39.367031" lon="-76.35625">
        <ele>5.576201</ele>
        <time>2024-10-05T08:18:52.000Z</time>
      </trkpt>
      <trkpt lat="39.36728" lon="-76.355904">
        <ele>5.631251</ele>
        <time>2024-10-05T08:18:56.000Z</time>
      </trkpt>
      <trkpt lat="39.367392" lon="-76.355762">
        <ele>5.652987</ele>
        <time>2024-10-05T08:18:58.000Z</time>
      </trkpt>
      <trkpt lat="39.367578" lon="-76.355427">
        <ele>5.707645</ele>
        <time>2024-10-05T08:19:02.000Z</time>
      </trkpt>
      <trkpt lat="39.367976" lon="-76.354634">
        <ele>5.879419</ele>
        <time>2024-10-05T08:19:10.000Z</time>
      </trkpt>
      <trkpt lat="39.368137" lon="-76.354364">
        <ele>5.945057</ele>
        <time>2024-10-05T08:19:13.000Z</time>
      </trkpt>
      <trkpt lat="39.368288" lon="-76.354163">
        <ele>5.995816</ele>
        <time>2024-10-05T08:19:15.000Z</time>
      </trkpt>
      <trkpt lat="39.368553" lon="-76.353929">
        <ele>6.074029</ele>
        <time>2024-10-05T08:19:19.000Z</time>
      </trkpt>
      <trkpt lat="39.369102" lon="-76.353517">
        <ele>6.063427</ele>
        <time>2024-10-05T08:19:26.000Z</time>
      </trkpt>
      <trkpt lat="39.370235" lon="-76.352704">
        <ele>5.894397</ele>
        <time>2024-10-05T08:19:40.000Z</time>
      </trkpt>
      <trkpt lat="39.370745" lon="-76.352349">
        <ele>5.5627</ele>
        <time>2024-10-05T08:19:46.000Z</time>
      </trkpt>
      <trkpt lat="39.370923" lon="-76.352277">
        <ele>5.446152</ele>
        <time>2024-10-05T08:19:48.000Z</time>
      </trkpt>
      <trkpt lat="39.371202" lon="-76.352248">
        <ele>5.268474</ele>
        <time>2024-10-05T08:19:51.000Z</time>
      </trkpt>
      <trkpt lat="39.371211" lon="-76.351941">
        <ele>5.118604</ele>
        <time>2024-10-05T08:19:54.000Z</time>
      </trkpt>
      <trkpt lat="39.371356" lon="-76.351432">
        <ele>4.860128</ele>
        <time>2024-10-05T08:19:59.000Z</time>
      </trkpt>
      <trkpt lat="39.371801" lon="-76.350284">
        <ele>4.499604</ele>
        <time>2024-10-05T08:20:10.000Z</time>
      </trkpt>
      <trkpt lat="39.371914" lon="-76.350021">
        <ele>4.426492</ele>
        <time>2024-10-05T08:20:13.000Z</time>
      </trkpt>
      <trkpt lat="39.372125" lon="-76.34945">
        <ele>4.274612</ele>
        <time>2024-10-05T08:20:18.000Z</time>
      </trkpt>
      <trkpt lat="39.372702" lon="-76.347992">
        <ele>3.905814</ele>
        <time>2024-10-05T08:20:32.000Z</time>
      </trkpt>
      <trkpt lat="39.372673" lon="-76.347947">
        <ele>3.894096</ele>
        <time>2024-10-05T08:20:33.000Z</time>
      </trkpt>
      <trkpt lat="39.37206" lon="-76.345052">
        <ele>2.998794</ele>
        <time>2024-10-05T08:20:59.000Z</time>
      </trkpt>
      <trkpt lat="39.371505" lon="-76.342565">
        <ele>3.097384</ele>
        <time>2024-10-05T08:21:21.000Z</time>
      </trkpt>
      <trkpt lat="39.371055" lon="-76.340426">
        <ele>3.899588</ele>
        <time>2024-10-05T08:21:40.000Z</time>
      </trkpt>
      <trkpt lat="39.372135" lon="-76.3398">
        <ele>4.363892</ele>
        <time>2024-10-05T08:21:53.000Z</time>
      </trkpt>
      <trkpt lat="39.372897" lon="-76.339401">
        <ele>4.625355</ele>
        <time>2024-10-05T08:22:02.000Z</time>
      </trkpt>
      <trkpt lat="39.372898" lon="-76.339394">
        <ele>4.625089</ele>
        <time>2024-10-05T08:22:02.000Z</time>
      </trkpt>
      <trkpt lat="39.372955" lon="-76.339371">
        <ele>4.623138</ele>
        <time>2024-10-05T08:22:03.000Z</time>
      </trkpt>
      <trkpt lat="39.373001" lon="-76.339388">
        <ele>4.621798</ele>
        <time>2024-10-05T08:22:04.000Z</time>
      </trkpt>
      <trkpt lat="39.373037" lon="-76.339546">
        <ele>4.617733</ele>
        <time>2024-10-05T08:22:05.000Z</time>
      </trkpt>
      <trkpt lat="39.373466" lon="-76.3416">
        <ele>4.585302</ele>
        <time>2024-10-05T08:22:23.000Z</time>
      </trkpt>
      <trkpt lat="39.373526" lon="-76.341842">
        <ele>4.598551</ele>
        <time>2024-10-05T08:22:25.000Z</time>
      </trkpt>
      <trkpt lat="39.373951" lon="-76.343805">
        <ele>4.707944</ele>
        <time>2024-10-05T08:22:43.000Z</time>
      </trkpt>
      <trkpt lat="39.374065" lon="-76.344344">
        <ele>4.737362</ele>
        <time>2024-10-05T08:22:48.000Z</time>
      </trkpt>
      <trkpt lat="39.374135" lon="-76.344709">
        <ele>4.75752</ele>
        <time>2024-10-05T08:22:51.000Z</time>
      </trkpt>
      <trkpt lat="39.374157" lon="-76.344862">
        <ele>4.765837</ele>
        <time>2024-10-05T08:22:52.000Z</time>
      </trkpt>
      <trkpt lat="39.37422" lon="-76.345122">
        <ele>4.780586</ele>
        <time>2024-10-05T08:22:54.000Z</time>
      </trkpt>
      <trkpt lat="39.37441" lon="-76.345959">
        <ele>4.778476</ele>
        <time>2024-10-05T08:23:01.000Z</time>
      </trkpt>
      <trkpt lat="39.374407" lon="-76.346104">
        <ele>4.730661</ele>
        <time>2024-10-05T08:23:02.000Z</time>
      </trkpt>
      <trkpt lat="39.374334" lon="-76.34637">
        <ele>4.647694</ele>
        <time>2024-10-05T08:23:04.000Z</time>
      </trkpt>
      <trkpt lat="39.374238" lon="-76.346544">
        <ele>4.578862</ele>
        <time>2024-10-05T08:23:06.000Z</time>
      </trkpt>
      <trkpt lat="39.374097" lon="-76.347063">
        <ele>4.413924</ele>
        <time>2024-10-05T08:23:11.000Z</time>
      </trkpt>
      <trkpt lat="39.374031" lon="-76.348634">
        <ele>3.876797</ele>
        <time>2024-10-05T08:23:25.000Z</time>
      </trkpt>
      <trkpt lat="39.374038" lon="-76.348872">
        <ele>3.776808</ele>
        <time>2024-10-05T08:23:27.000Z</time>
      </trkpt>
      <trkpt lat="39.374114" lon="-76.349318">
        <ele>3.59073</ele>
        <time>2024-10-05T08:23:31.000Z</time>
      </trkpt>
      <trkpt lat="39.374291" lon="-76.350043">
        <ele>3.281036</ele>
        <time>2024-10-05T08:23:38.000Z</time>
      </trkpt>
      <trkpt lat="39.374564" lon="-76.350846">
        <ele>3.114071</ele>
        <time>2024-10-05T08:23:46.000Z</time>
      </trkpt>
      <trkpt lat="39.374832" lon="-76.351219">
        <ele>3.069995</ele>
        <time>2024-10-05T08:23:50.000Z</time>
      </trkpt>
      <trkpt lat="39.374945" lon="-76.351391">
        <ele>3.050192</ele>
        <time>2024-10-05T08:23:52.000Z</time>
      </trkpt>
      <trkpt lat="39.375432" lon="-76.352014">
        <ele>2.97433</ele>
        <time>2024-10-05T08:24:00.000Z</time>
      </trkpt>
      <trkpt lat="39.375885" lon="-76.352478">
        <ele>3.381807</ele>
        <time>2024-10-05T08:24:06.000Z</time>
      </trkpt>
      <trkpt lat="39.376236" lon="-76.352792">
        <ele>3.739511</ele>
        <time>2024-10-05T08:24:11.000Z</time>
      </trkpt>
      <trkpt lat="39.376755" lon="-76.353108">
        <ele>4.221193</ele>
        <time>2024-10-05T08:24:17.000Z</time>
      </trkpt>
      <trkpt lat="39.376939" lon="-76.353227">
        <ele>4.406817</ele>
        <time>2024-10-05T08:24:19.000Z</time>
      </trkpt>
      <trkpt lat="39.377192" lon="-76.35336">
        <ele>4.538572</ele>
        <time>2024-10-05T08:24:22.000Z</time>
      </trkpt>
      <trkpt lat="39.377783" lon="-76.353649">
        <ele>4.712698</ele>
        <time>2024-10-05T08:24:29.000Z</time>
      </trkpt>
      <trkpt lat="39.377745" lon="-76.353764">
        <ele>4.73735</ele>
        <time>2024-10-05T08:24:30.000Z</time>
      </trkpt>
      <trkpt lat="39.377209" lon="-76.354224">
        <ele>4.920936</ele>
        <time>2024-10-05T08:24:37.000Z</time>
      </trkpt>
      <trkpt lat="39.376478" lon="-76.354817">
        <ele>4.833935</ele>
        <time>2024-10-05T08:24:47.000Z</time>
      </trkpt>
      <trkpt lat="39.375586" lon="-76.355569">
        <ele>4.560302</ele>
        <time>2024-10-05T08:24:59.000Z</time>
      </trkpt>
      <trkpt lat="39.375371" lon="-76.355766">
        <ele>4.605404</ele>
        <time>2024-10-05T08:25:02.000Z</time>
      </trkpt>
      <trkpt lat="39.374186" lon="-76.356754">
        <ele>5.402442</ele>
        <time>2024-10-05T08:25:18.000Z</time>
      </trkpt>
      <trkpt lat="39.373244" lon="-76.35755">
        <ele>5.784131</ele>
        <time>2024-10-05T08:25:31.000Z</time>
      </trkpt>
      <trkpt lat="39.373073" lon="-76.357685">
        <ele>5.837251</ele>
        <time>2024-10-05T08:25:33.000Z</time>
      </trkpt>
      <trkpt lat="39.372848" lon="-76.357872">
        <ele>5.907596</ele>
        <time>2024-10-05T08:25:36.000Z</time>
      </trkpt>
      <trkpt lat="39.372107" lon="-76.35851">
        <ele>5.94793</ele>
        <time>2024-10-05T08:25:46.000Z</time>
      </trkpt>
      <trkpt lat="39.370003" lon="-76.360305">
        <ele>5.553517</ele>
        <time>2024-10-05T08:26:14.000Z</time>
      </trkpt>
      <trkpt lat="39.369154" lon="-76.36104">
        <ele>5.576604</ele>
        <time>2024-10-05T08:26:25.000Z</time>
      </trkpt>
      <trkpt lat="39.367792" lon="-76.362219">
        <ele>5.967189</ele>
        <time>2024-10-05T08:26:43.000Z</time>
      </trkpt>
      <trkpt lat="39.367571" lon="-76.362414">
        <ele>6.008948</ele>
        <time>2024-10-05T08:26:46.000Z</time>
      </trkpt>
      <trkpt lat="39.365909" lon="-76.363873">
        <ele>6.213715</ele>
        <time>2024-10-05T08:27:08.000Z</time>
      </trkpt>
      <trkpt lat="39.365609" lon="-76.364134">
        <ele>6.204312</ele>
        <time>2024-10-05T08:27:12.000Z</time>
      </trkpt>
      <trkpt lat="39.363434" lon="-76.366054">
        <ele>5.816021</ele>
        <time>2024-10-05T08:27:41.000Z</time>
      </trkpt>
      <trkpt lat="39.363178" lon="-76.366251">
        <ele>5.729875</ele>
        <time>2024-10-05T08:27:44.000Z</time>
      </trkpt>
      <trkpt lat="39.362977" lon="-76.366364">
        <ele>5.673079</ele>
        <time>2024-10-05T08:27:46.000Z</time>
      </trkpt>
      <trkpt lat="39.362173" lon="-76.366775">
        <ele>5.431435</ele>
        <time>2024-10-05T08:27:56.000Z</time>
      </trkpt>
      <trkpt lat="39.361916" lon="-76.366955">
        <ele>5.348107</ele>
        <time>2024-10-05T08:27:59.000Z</time>
      </trkpt>
      <trkpt lat="39.36162" lon="-76.367285">
        <ele>5.350386</ele>
        <time>2024-10-05T08:28:03.000Z</time>
      </trkpt>
      <trkpt lat="39.361317" lon="-76.367657">
        <ele>5.363759</ele>
        <time>2024-10-05T08:28:08.000Z</time>
      </trkpt>
      <trkpt lat="39.360646" lon="-76.368483">
        <ele>5.393761</ele>
        <time>2024-10-05T08:28:18.000Z</time>
      </trkpt>
      <trkpt lat="39.360261" lon="-76.368938">
        <ele>5.38783</ele>
        <time>2024-10-05T08:28:24.000Z</time>
      </trkpt>
      <trkpt lat="39.360187" lon="-76.369007">
        <ele>5.385968</ele>
        <time>2024-10-05T08:28:25.000Z</time>
      </trkpt>
      <trkpt lat="39.360017" lon="-76.369201">
        <ele>5.381105</ele>
        <time>2024-10-05T08:28:28.000Z</time>
      </trkpt>
      <trkpt lat="39.35996" lon="-76.369261">
        <ele>5.379629</ele>
        <time>2024-10-05T08:28:29.000Z</time>
      </trkpt>
      <trkpt lat="39.359801" lon="-76.369448">
        <ele>5.375261</ele>
        <time>2024-10-05T08:28:31.000Z</time>
      </trkpt>
      <trkpt lat="39.359614" lon="-76.369677">
        <ele>5.369832</ele>
        <time>2024-10-05T08:28:34.000Z</time>
      </trkpt>
      <trkpt lat="39.359565" lon="-76.369745">
        <ele>5.368062</ele>
        <time>2024-10-05T08:28:35.000Z</time>
      </trkpt>
      <trkpt lat="39.359165" lon="-76.370283">
        <ele>5.393173</ele>
        <time>2024-10-05T08:28:41.000Z</time>
      </trkpt>
      <trkpt lat="39.358644" lon="-76.371065">
        <ele>5.587395</ele>
        <time>2024-10-05T08:28:50.000Z</time>
      </trkpt>
      <trkpt lat="39.358371" lon="-76.371546">
        <ele>5.700761</ele>
        <time>2024-10-05T08:28:55.000Z</time>
      </trkpt>
      <trkpt lat="39.358116" lon="-76.372006">
        <ele>5.802074</ele>
        <time>2024-10-05T08:29:00.000Z</time>
      </trkpt>
      <trkpt lat="39.357875" lon="-76.372297">
        <ele>5.814485</ele>
        <time>2024-10-05T08:29:04.000Z</time>
      </trkpt>
      <trkpt lat="39.357849" lon="-76.372346">
        <ele>5.816623</ele>
        <time>2024-10-05T08:29:05.000Z</time>
      </trkpt>
      <trkpt lat="39.35778" lon="-76.372429">
        <ele>5.819785</ele>
        <time>2024-10-05T08:29:06.000Z</time>
      </trkpt>
      <trkpt lat="39.357621" lon="-76.372603">
        <ele>5.82765</ele>
        <time>2024-10-05T08:29:08.000Z</time>
      </trkpt>
      <trkpt lat="39.357315" lon="-76.372887">
        <ele>5.842275</ele>
        <time>2024-10-05T08:29:12.000Z</time>
      </trkpt>
      <trkpt lat="39.357146" lon="-76.373024">
        <ele>5.849721</ele>
        <time>2024-10-05T08:29:14.000Z</time>
      </trkpt>
      <trkpt lat="39.356808" lon="-76.373314">
        <ele>5.865152</ele>
        <time>2024-10-05T08:29:19.000Z</time>
      </trkpt>
      <trkpt lat="39.356582" lon="-76.373512">
        <ele>5.803949</ele>
        <time>2024-10-05T08:29:22.000Z</time>
      </trkpt>
      <trkpt lat="39.356345" lon="-76.373723">
        <ele>5.689662</ele>
        <time>2024-10-05T08:29:25.000Z</time>
      </trkpt>
      <trkpt lat="39.356046" lon="-76.373997">
        <ele>5.53963</ele>
        <time>2024-10-05T08:29:29.000Z</time>
      </trkpt>
      <trkpt lat="39.355968" lon="-76.374064">
        <ele>5.507089</ele>
        <time>2024-10-05T08:29:30.000Z</time>
      </trkpt>
      <trkpt lat="39.355793" lon="-76.3742">
        <ele>5.424716</ele>
        <time>2024-10-05T08:29:32.000Z</time>
      </trkpt>
      <trkpt lat="39.355686" lon="-76.374309">
        <ele>5.370183</ele>
        <time>2024-10-05T08:29:34.000Z</time>
      </trkpt>
      <trkpt lat="39.355187" lon="-76.374745">
        <ele>5.142898</ele>
        <time>2024-10-05T08:29:41.000Z</time>
      </trkpt>
      <trkpt lat="39.35427" lon="-76.375547">
        <ele>4.985195</ele>
        <time>2024-10-05T08:29:53.000Z</time>
      </trkpt>
      <trkpt lat="39.353815" lon="-76.375947">
        <ele>4.909299</ele>
        <time>2024-10-05T08:29:59.000Z</time>
      </trkpt>
      <trkpt lat="39.35355" lon="-76.376171">
        <ele>4.983288</ele>
        <time>2024-10-05T08:30:03.000Z</time>
      </trkpt>
      <trkpt lat="39.353396" lon="-76.376286">
        <ele>5.051272</ele>
        <time>2024-10-05T08:30:05.000Z</time>
      </trkpt>
      <trkpt lat="39.353176" lon="-76.37649">
        <ele>5.157457</ele>
        <time>2024-10-05T08:30:08.000Z</time>
      </trkpt>
      <trkpt lat="39.352623" lon="-76.376971">
        <ele>5.409955</ele>
        <time>2024-10-05T08:30:15.000Z</time>
      </trkpt>
      <trkpt lat="39.351951" lon="-76.377548">
        <ele>5.78732</ele>
        <time>2024-10-05T08:30:24.000Z</time>
      </trkpt>
      <trkpt lat="39.351254" lon="-76.378149">
        <ele>6.27089</ele>
        <time>2024-10-05T08:30:33.000Z</time>
      </trkpt>
      <trkpt lat="39.35072" lon="-76.378594">
        <ele>6.629081</ele>
        <time>2024-10-05T08:30:40.000Z</time>
      </trkpt>
      <trkpt lat="39.350407" lon="-76.378972">
        <ele>6.74848</ele>
        <time>2024-10-05T08:30:45.000Z</time>
      </trkpt>
      <trkpt lat="39.350244" lon="-76.379351">
        <ele>6.842404</ele>
        <time>2024-10-05T08:30:49.000Z</time>
      </trkpt>
      <trkpt lat="39.350071" lon="-76.379839">
        <ele>6.957593</ele>
        <time>2024-10-05T08:30:54.000Z</time>
      </trkpt>
      <trkpt lat="39.34996" lon="-76.380232">
        <ele>7.050079</ele>
        <time>2024-10-05T08:30:58.000Z</time>
      </trkpt>
      <trkpt lat="39.349793" lon="-76.380798">
        <ele>7.013796</ele>
        <time>2024-10-05T08:31:03.000Z</time>
      </trkpt>
      <trkpt lat="39.348864" lon="-76.38387">
        <ele>5.750577</ele>
        <time>2024-10-05T08:31:31.000Z</time>
      </trkpt>
      <trkpt lat="39.348829" lon="-76.383965">
        <ele>5.717953</ele>
        <time>2024-10-05T08:31:32.000Z</time>
      </trkpt>
      <trkpt lat="39.347704" lon="-76.387817">
        <ele>5.513668</ele>
        <time>2024-10-05T08:32:07.000Z</time>
      </trkpt>
      <trkpt lat="39.34758" lon="-76.388242">
        <ele>5.580799</ele>
        <time>2024-10-05T08:32:11.000Z</time>
      </trkpt>
      <trkpt lat="39.347426" lon="-76.38875">
        <ele>5.657421</ele>
        <time>2024-10-05T08:32:16.000Z</time>
      </trkpt>
      <trkpt lat="39.347079" lon="-76.389894">
        <ele>6.091746</ele>
        <time>2024-10-05T08:32:27.000Z</time>
      </trkpt>
      <trkpt lat="39.346787" lon="-76.3908">
        <ele>6.585673</ele>
        <time>2024-10-05T08:32:35.000Z</time>
      </trkpt>
      <trkpt lat="39.346508" lon="-76.391381">
        <ele>6.909464</ele>
        <time>2024-10-05T08:32:41.000Z</time>
      </trkpt>
      <trkpt lat="39.346294" lon="-76.39173">
        <ele>6.89193</ele>
        <time>2024-10-05T08:32:45.000Z</time>
      </trkpt>
      <trkpt lat="39.345873" lon="-76.392253">
        <ele>6.863438</ele>
        <time>2024-10-05T08:32:51.000Z</time>
      </trkpt>
      <trkpt lat="39.345538" lon="-76.392633">
        <ele>6.84044</ele>
        <time>2024-10-05T08:32:56.000Z</time>
      </trkpt>
      <trkpt lat="39.34547" lon="-76.392693">
        <ele>6.836682</ele>
        <time>2024-10-05T08:32:57.000Z</time>
      </trkpt>
      <trkpt lat="39.345451" lon="-76.392716">
        <ele>6.835191</ele>
        <time>2024-10-05T08:32:57.000Z</time>
      </trkpt>
      <trkpt lat="39.345326" lon="-76.392841">
        <ele>6.827845</ele>
        <time>2024-10-05T08:32:59.000Z</time>
      </trkpt>
      <trkpt lat="39.345198" lon="-76.392985">
        <ele>6.797325</ele>
        <time>2024-10-05T08:33:01.000Z</time>
      </trkpt>
      <trkpt lat="39.34503" lon="-76.393157">
        <ele>6.707738</ele>
        <time>2024-10-05T08:33:03.000Z</time>
      </trkpt>
      <trkpt lat="39.3449" lon="-76.393298">
        <ele>6.634655</ele>
        <time>2024-10-05T08:33:05.000Z</time>
      </trkpt>
      <trkpt lat="39.34441" lon="-76.393823">
        <ele>6.346203</ele>
        <time>2024-10-05T08:33:12.000Z</time>
      </trkpt>
      <trkpt lat="39.344132" lon="-76.394098">
        <ele>6.189838</ele>
        <time>2024-10-05T08:33:16.000Z</time>
      </trkpt>
      <trkpt lat="39.344248" lon="-76.394249">
        <ele>6.117806</ele>
        <time>2024-10-05T08:33:18.000Z</time>
      </trkpt>
      <trkpt lat="39.34437" lon="-76.394285">
        <ele>6.062909</ele>
        <time>2024-10-05T08:33:19.000Z</time>
      </trkpt>
      <trkpt lat="39.344504" lon="-76.394297">
        <ele>6.064221</ele>
        <time>2024-10-05T08:33:20.000Z</time>
      </trkpt>
      <trkpt lat="39.345846" lon="-76.394239">
        <ele>7.341107</ele>
        <time>2024-10-05T08:33:35.000Z</time>
      </trkpt>
      <trkpt lat="39.34641" lon="-76.394209">
        <ele>7.839499</ele>
        <time>2024-10-05T08:33:41.000Z</time>
      </trkpt>
      <trkpt lat="39.347087" lon="-76.39416">
        <ele>8.307868</ele>
        <time>2024-10-05T08:33:49.000Z</time>
      </trkpt>
      <trkpt lat="39.347166" lon="-76.394162">
        <ele>8.358642</ele>
        <time>2024-10-05T08:33:50.000Z</time>
      </trkpt>
      <trkpt lat="39.34742" lon="-76.394137">
        <ele>8.540793</ele>
        <time>2024-10-05T08:33:53.000Z</time>
      </trkpt>
      <trkpt lat="39.347518" lon="-76.394137">
        <ele>8.607476</ele>
        <time>2024-10-05T08:33:54.000Z</time>
      </trkpt>
      <trkpt lat="39.347693" lon="-76.394111">
        <ele>8.719702</ele>
        <time>2024-10-05T08:33:56.000Z</time>
      </trkpt>
      <trkpt lat="39.347971" lon="-76.394113">
        <ele>8.921428</ele>
        <time>2024-10-05T08:33:59.000Z</time>
      </trkpt>
      <trkpt lat="39.348169" lon="-76.394097">
        <ele>9.05801</ele>
        <time>2024-10-05T08:34:01.000Z</time>
      </trkpt>
      <trkpt lat="39.348261" lon="-76.394094">
        <ele>9.128508</ele>
        <time>2024-10-05T08:34:02.000Z</time>
      </trkpt>
      <trkpt lat="39.348497" lon="-76.394059">
        <ele>9.301204</ele>
        <time>2024-10-05T08:34:05.000Z</time>
      </trkpt>
      <trkpt lat="39.348705" lon="-76.393945">
        <ele>9.464096</ele>
        <time>2024-10-05T08:34:08.000Z</time>
      </trkpt>
      <trkpt lat="39.349122" lon="-76.393698">
        <ele>9.790478</ele>
        <time>2024-10-05T08:34:13.000Z</time>
      </trkpt>
      <trkpt lat="39.349228" lon="-76.393655">
        <ele>9.879633</ele>
        <time>2024-10-05T08:34:14.000Z</time>
      </trkpt>
      <trkpt lat="39.349464" lon="-76.393666">
        <ele>10.051289</ele>
        <time>2024-10-05T08:34:17.000Z</time>
      </trkpt>
      <trkpt lat="39.35019" lon="-76.393919">
        <ele>10.507607</ele>
        <time>2024-10-05T08:34:25.000Z</time>
      </trkpt>
      <trkpt lat="39.350538" lon="-76.394022">
        <ele>10.694245</ele>
        <time>2024-10-05T08:34:29.000Z</time>
      </trkpt>
      <trkpt lat="39.350779" lon="-76.394042">
        <ele>10.828488</ele>
        <time>2024-10-05T08:34:32.000Z</time>
      </trkpt>
      <trkpt lat="39.351648" lon="-76.393933">
        <ele>11.291014</ele>
        <time>2024-10-05T08:34:42.000Z</time>
      </trkpt>
      <trkpt lat="39.351804" lon="-76.393953">
        <ele>11.380226</ele>
        <time>2024-10-05T08:34:44.000Z</time>
      </trkpt>
      <trkpt lat="39.352145" lon="-76.394022">
        <ele>11.570493</ele>
        <time>2024-10-05T08:34:48.000Z</time>
      </trkpt>
      <trkpt lat="39.352425" lon="-76.394082">
        <ele>11.719179</ele>
        <time>2024-10-05T08:34:51.000Z</time>
      </trkpt>
      <trkpt lat="39.353256" lon="-76.394356">
        <ele>12.195963</ele>
        <time>2024-10-05T08:35:01.000Z</time>
      </trkpt>
      <trkpt lat="39.353565" lon="-76.394463">
        <ele>12.45638</ele>
        <time>2024-10-05T08:35:05.000Z</time>
      </trkpt>
      <trkpt lat="39.35415" lon="-76.394645">
        <ele>12.991266</ele>
        <time>2024-10-05T08:35:12.000Z</time>
      </trkpt>
      <trkpt lat="39.354658" lon="-76.394838">
        <ele>13.466032</ele>
        <time>2024-10-05T08:35:18.000Z</time>
      </trkpt>
      <trkpt lat="39.354864" lon="-76.394903">
        <ele>13.648315</ele>
        <time>2024-10-05T08:35:20.000Z</time>
      </trkpt>
      <trkpt lat="39.355058" lon="-76.394934">
        <ele>13.820964</ele>
        <time>2024-10-05T08:35:22.000Z</time>
      </trkpt>
      <trkpt lat="39.355204" lon="-76.394903">
        <ele>14.02223</ele>
        <time>2024-10-05T08:35:24.000Z</time>
      </trkpt>
      <trkpt lat="39.355535" lon="-76.39476">
        <ele>14.446358</ele>
        <time>2024-10-05T08:35:28.000Z</time>
      </trkpt>
      <trkpt lat="39.357812" lon="-76.393493">
        <ele>17.616861</ele>
        <time>2024-10-05T08:35:56.000Z</time>
      </trkpt>
      <trkpt lat="39.358249" lon="-76.393257">
        <ele>18.22978</ele>
        <time>2024-10-05T08:36:01.000Z</time>
      </trkpt>
      <trkpt lat="39.358428" lon="-76.393167">
        <ele>18.510732</ele>
        <time>2024-10-05T08:36:03.000Z</time>
      </trkpt>
      <trkpt lat="39.359195" lon="-76.392772">
        <ele>19.831677</ele>
        <time>2024-10-05T08:36:12.000Z</time>
      </trkpt>
      <trkpt lat="39.35944" lon="-76.392645">
        <ele>20.248967</ele>
        <time>2024-10-05T08:36:15.000Z</time>
      </trkpt>
      <trkpt lat="39.360332" lon="-76.392181">
        <ele>21.574361</ele>
        <time>2024-10-05T08:36:26.000Z</time>
      </trkpt>
      <trkpt lat="39.360522" lon="-76.391976">
        <ele>21.781224</ele>
        <time>2024-10-05T08:36:29.000Z</time>
      </trkpt>
      <trkpt lat="39.36061" lon="-76.391839">
        <ele>21.911884</ele>
        <time>2024-10-05T08:36:31.000Z</time>
      </trkpt>
      <trkpt lat="39.360604" lon="-76.391838">
        <ele>21.914783</ele>
        <time>2024-10-05T08:36:31.000Z</time>
      </trkpt>
      <trkpt lat="39.36072" lon="-76.391534">
        <ele>22.140248</ele>
        <time>2024-10-05T08:36:34.000Z</time>
      </trkpt>
      <trkpt lat="39.361019" lon="-76.39045">
        <ele>22.876078</ele>
        <time>2024-10-05T08:36:44.000Z</time>
      </trkpt>
      <trkpt lat="39.361172" lon="-76.390058">
        <ele>22.622696</ele>
        <time>2024-10-05T08:36:48.000Z</time>
      </trkpt>
      <trkpt lat="39.36148" lon="-76.38936">
        <ele>22.157593</ele>
        <time>2024-10-05T08:36:55.000Z</time>
      </trkpt>
      <trkpt lat="39.361746" lon="-76.38892">
        <ele>21.837069</ele>
        <time>2024-10-05T08:37:00.000Z</time>
      </trkpt>
      <trkpt lat="39.362135" lon="-76.388579">
        <ele>21.396725</ele>
        <time>2024-10-05T08:37:05.000Z</time>
      </trkpt>
      <trkpt lat="39.362688" lon="-76.388238">
        <ele>20.352734</ele>
        <time>2024-10-05T08:37:12.000Z</time>
      </trkpt>
      <trkpt lat="39.362552" lon="-76.387522">
        <ele>19.392447</ele>
        <time>2024-10-05T08:37:18.000Z</time>
      </trkpt>
      <trkpt lat="39.362529" lon="-76.386941">
        <ele>18.627866</ele>
        <time>2024-10-05T08:37:23.000Z</time>
      </trkpt>
      <trkpt lat="39.362535" lon="-76.386844">
        <ele>18.478455</ele>
        <time>2024-10-05T08:37:24.000Z</time>
      </trkpt>
      <trkpt lat="39.362653" lon="-76.386153">
        <ele>16.910364</ele>
        <time>2024-10-05T08:37:30.000Z</time>
      </trkpt>
      <trkpt lat="39.362735" lon="-76.385989">
        <ele>16.482158</ele>
        <time>2024-10-05T08:37:32.000Z</time>
      </trkpt>
      <trkpt lat="39.36285" lon="-76.385869">
        <ele>16.049852</ele>
        <time>2024-10-05T08:37:34.000Z</time>
      </trkpt>
      <trkpt lat="39.363171" lon="-76.385687">
        <ele>15.040928</ele>
        <time>2024-10-05T08:37:38.000Z</time>
      </trkpt>
      <trkpt lat="39.363317" lon="-76.384743">
        <ele>12.973933</ele>
        <time>2024-10-05T08:37:46.000Z</time>
      </trkpt>
      <trkpt lat="39.363645" lon="-76.382674">
        <ele>9.079303</ele>
        <time>2024-10-05T08:38:04.000Z</time>
      </trkpt>
      <trkpt lat="39.363819" lon="-76.381264">
        <ele>7.388594</ele>
        <time>2024-10-05T08:38:16.000Z</time>
      </trkpt>
      <trkpt lat="39.363844" lon="-76.380607">
        <ele>6.619064</ele>
        <time>2024-10-05T08:38:22.000Z</time>
      </trkpt>
      <trkpt lat="39.363831" lon="-76.380303">
        <ele>6.296834</ele>
        <time>2024-10-05T08:38:25.000Z</time>
      </trkpt>
      <trkpt lat="39.363688" lon="-76.378986">
        <ele>5.708074</ele>
        <time>2024-10-05T08:38:36.000Z</time>
      </trkpt>
      <trkpt lat="39.36361" lon="-76.377977">
        <ele>5.311387</ele>
        <time>2024-10-05T08:38:45.000Z</time>
      </trkpt>
      <trkpt lat="39.363641" lon="-76.377167">
        <ele>5.39739</ele>
        <time>2024-10-05T08:38:52.000Z</time>
      </trkpt>
      <trkpt lat="39.363759" lon="-76.375727">
        <ele>5.543754</ele>
        <time>2024-10-05T08:39:04.000Z</time>
      </trkpt>
      <trkpt lat="39.363776" lon="-76.375268">
        <ele>5.455555</ele>
        <time>2024-10-05T08:39:08.000Z</time>
      </trkpt>
      <trkpt lat="39.363777" lon="-76.37502">
        <ele>5.407907</ele>
        <time>2024-10-05T08:39:10.000Z</time>
      </trkpt>
      <trkpt lat="39.363731" lon="-76.374459">
        <ele>5.301309</ele>
        <time>2024-10-05T08:39:15.000Z</time>
      </trkpt>
      <trkpt lat="39.363714" lon="-76.374342">
        <ele>5.277328</ele>
        <time>2024-10-05T08:39:16.000Z</time>
      </trkpt>
      <trkpt lat="39.363677" lon="-76.37396">
        <ele>5.20513</ele>
        <time>2024-10-05T08:39:19.000Z</time>
      </trkpt>
      <trkpt lat="39.363685" lon="-76.373639">
        <ele>5.143571</ele>
        <time>2024-10-05T08:39:22.000Z</time>
      </trkpt>
      <trkpt lat="39.363726" lon="-76.373003">
        <ele>5.056511</ele>
        <time>2024-10-05T08:39:27.000Z</time>
      </trkpt>
      <trkpt lat="39.363815" lon="-76.372616">
        <ele>5.013183</ele>
        <time>2024-10-05T08:39:30.000Z</time>
      </trkpt>
      <trkpt lat="39.364154" lon="-76.371658">
        <ele>4.897437</ele>
        <time>2024-10-05T08:39:39.000Z</time>
      </trkpt>
      <trkpt lat="39.364399" lon="-76.370828">
        <ele>4.99063</ele>
        <time>2024-10-05T08:39:47.000Z</time>
      </trkpt>
      <trkpt lat="39.364454" lon="-76.37053">
        <ele>5.093611</ele>
        <time>2024-10-05T08:39:50.000Z</time>
      </trkpt>
      <trkpt lat="39.364517" lon="-76.37001">
        <ele>5.265366</ele>
        <time>2024-10-05T08:39:55.000Z</time>
      </trkpt>
      <trkpt lat="39.364523" lon="-76.369208">
        <ele>5.523848</ele>
        <time>2024-10-05T08:40:02.000Z</time>
      </trkpt>
      <trkpt lat="39.364386" lon="-76.368319">
        <ele>5.735206</ele>
        <time>2024-10-05T08:40:10.000Z</time>
      </trkpt>
      <trkpt lat="39.364252" lon="-76.367742">
        <ele>5.850349</ele>
        <time>2024-10-05T08:40:15.000Z</time>
      </trkpt>
      <trkpt lat="39.364154" lon="-76.367474">
        <ele>5.908117</ele>
        <time>2024-10-05T08:40:18.000Z</time>
      </trkpt>
      <trkpt lat="39.363912" lon="-76.366909">
        <ele>6.034701</ele>
        <time>2024-10-05T08:40:24.000Z</time>
      </trkpt>
      <trkpt lat="39.363582" lon="-76.366279">
        <ele>5.919129</ele>
        <time>2024-10-05T08:40:31.000Z</time>
      </trkpt>
      <trkpt lat="39.363376" lon="-76.36587">
        <ele>5.815726</ele>
        <time>2024-10-05T08:40:35.000Z</time>
      </trkpt>
      <trkpt lat="39.363166" lon="-76.365455">
        <ele>5.709149</ele>
        <time>2024-10-05T08:40:39.000Z</time>
      </trkpt>
      <trkpt lat="39.363072" lon="-76.365206">
        <ele>5.651236</ele>
        <time>2024-10-05T08:40:41.000Z</time>
      </trkpt>
      <trkpt lat="39.36292" lon="-76.364754">
        <ele>5.532604</ele>
        <time>2024-10-05T08:40:45.000Z</time>
      </trkpt>
      <trkpt lat="39.362689" lon="-76.363823">
        <ele>5.113693</ele>
        <time>2024-10-05T08:40:53.000Z</time>
      </trkpt>
      <trkpt lat="39.36231" lon="-76.362363">
        <ele>4.580406</ele>
        <time>2024-10-05T08:41:06.000Z</time>
      </trkpt>
      <trkpt lat="39.362247" lon="-76.361986">
        <ele>4.61352</ele>
        <time>2024-10-05T08:41:09.000Z</time>
      </trkpt>
      <trkpt lat="39.362204" lon="-76.361387">
        <ele>4.666861</ele>
        <time>2024-10-05T08:41:14.000Z</time>
      </trkpt>
      <trkpt lat="39.362181" lon="-76.360604">
        <ele>4.734792</ele>
        <time>2024-10-05T08:41:21.000Z</time>
      </trkpt>
      <trkpt lat="39.362197" lon="-76.360196">
        <ele>4.768589</ele>
        <time>2024-10-05T08:41:25.000Z</time>
      </trkpt>
      <trkpt lat="39.362203" lon="-76.359758">
        <ele>4.796861</ele>
        <time>2024-10-05T08:41:29.000Z</time>
      </trkpt>
      <trkpt lat="39.362201" lon="-76.3595">
        <ele>4.814174</ele>
        <time>2024-10-05T08:41:31.000Z</time>
      </trkpt>
      <trkpt lat="39.362159" lon="-76.359186">
        <ele>4.834648</ele>
        <time>2024-10-05T08:41:34.000Z</time>
      </trkpt>
      <trkpt lat="39.362099" lon="-76.359003">
        <ele>4.847878</ele>
        <time>2024-10-05T08:41:36.000Z</time>
      </trkpt>
      <trkpt lat="39.361915" lon="-76.358701">
        <ele>4.872101</ele>
        <time>2024-10-05T08:41:39.000Z</time>
      </trkpt>
      <trkpt lat="39.361823" lon="-76.358579">
        <ele>4.884958</ele>
        <time>2024-10-05T08:41:40.000Z</time>
      </trkpt>
      <trkpt lat="39.361148" lon="-76.357989">
        <ele>4.479034</ele>
        <time>2024-10-05T08:41:49.000Z</time>
      </trkpt>
      <trkpt lat="39.360914" lon="-76.357782">
        <ele>4.217584</ele>
        <time>2024-10-05T08:41:52.000Z</time>
      </trkpt>
      <trkpt lat="39.360464" lon="-76.357599">
        <ele>3.781384</ele>
        <time>2024-10-05T08:41:57.000Z</time>
      </trkpt>
      <trkpt lat="39.360238" lon="-76.357466">
        <ele>3.551157</ele>
        <time>2024-10-05T08:42:00.000Z</time>
      </trkpt>
      <trkpt lat="39.359676" lon="-76.357079">
        <ele>3.049846</ele>
        <time>2024-10-05T08:42:07.000Z</time>
      </trkpt>
      <trkpt lat="39.359387" lon="-76.356786">
        <ele>2.812316</ele>
        <time>2024-10-05T08:42:11.000Z</time>
      </trkpt>
      <trkpt lat="39.358935" lon="-76.356263">
        <ele>2.412395</ele>
        <time>2024-10-05T08:42:18.000Z</time>
      </trkpt>
      <trkpt lat="39.358327" lon="-76.355816">
        <ele>2.062411</ele>
        <time>2024-10-05T08:42:26.000Z</time>
      </trkpt>
      <trkpt lat="39.358022" lon="-76.355696">
        <ele>2.037771</ele>
        <time>2024-10-05T08:42:30.000Z</time>
      </trkpt>
      <trkpt lat="39.357673" lon="-76.355687">
        <ele>2.009365</ele>
        <time>2024-10-05T08:42:34.000Z</time>
      </trkpt>
      <trkpt lat="39.357484" lon="-76.355632">
        <ele>1.995438</ele>
        <time>2024-10-05T08:42:36.000Z</time>
      </trkpt>
      <trkpt lat="39.357123" lon="-76.355438">
        <ele>1.963399</ele>
        <time>2024-10-05T08:42:40.000Z</time>
      </trkpt>
      <trkpt lat="39.356774" lon="-76.35516">
        <ele>1.948531</ele>
        <time>2024-10-05T08:42:45.000Z</time>
      </trkpt>
      <trkpt lat="39.356656" lon="-76.354983">
        <ele>2.012622</ele>
        <time>2024-10-05T08:42:47.000Z</time>
      </trkpt>
      <trkpt lat="39.356527" lon="-76.35474">
        <ele>2.08658</ele>
        <time>2024-10-05T08:42:50.000Z</time>
      </trkpt>
      <trkpt lat="39.356016" lon="-76.35339">
        <ele>2.486041</ele>
        <time>2024-10-05T08:43:03.000Z</time>
      </trkpt>
      <trkpt lat="39.355834" lon="-76.353075">
        <ele>2.592575</ele>
        <time>2024-10-05T08:43:06.000Z</time>
      </trkpt>
      <trkpt lat="39.355745" lon="-76.352838">
        <ele>2.684223</ele>
        <time>2024-10-05T08:43:08.000Z</time>
      </trkpt>
      <trkpt lat="39.355555" lon="-76.352229">
        <ele>2.895767</ele>
        <time>2024-10-05T08:43:14.000Z</time>
      </trkpt>
      <trkpt lat="39.355552" lon="-76.352216">
        <ele>2.897137</ele>
        <time>2024-10-05T08:43:14.000Z</time>
      </trkpt>
      <trkpt lat="39.355374" lon="-76.35175">
        <ele>3.068628</ele>
        <time>2024-10-05T08:43:18.000Z</time>
      </trkpt>
      <trkpt lat="39.355107" lon="-76.351376">
        <ele>3.232041</ele>
        <time>2024-10-05T08:43:22.000Z</time>
      </trkpt>
      <trkpt lat="39.354844" lon="-76.351062">
        <ele>3.287254</ele>
        <time>2024-10-05T08:43:26.000Z</time>
      </trkpt>
      <trkpt lat="39.354659" lon="-76.350979">
        <ele>3.271451</ele>
        <time>2024-10-05T08:43:28.000Z</time>
      </trkpt>
      <trkpt lat="39.354364" lon="-76.35104">
        <ele>3.247107</ele>
        <time>2024-10-05T08:43:31.000Z</time>
      </trkpt>
      <trkpt lat="39.354137" lon="-76.351208">
        <ele>3.22493</ele>
        <time>2024-10-05T08:43:34.000Z</time>
      </trkpt>
      <trkpt lat="39.353804" lon="-76.351654">
        <ele>3.183878</ele>
        <time>2024-10-05T08:43:39.000Z</time>
      </trkpt>
      <trkpt lat="39.353703" lon="-76.351733">
        <ele>3.174677</ele>
        <time>2024-10-05T08:43:40.000Z</time>
      </trkpt>
      <trkpt lat="39.35355" lon="-76.351817">
        <ele>3.159951</ele>
        <time>2024-10-05T08:43:42.000Z</time>
      </trkpt>
      <trkpt lat="39.353297" lon="-76.351816">
        <ele>3.087568</ele>
        <time>2024-10-05T08:43:45.000Z</time>
      </trkpt>
      <trkpt lat="39.352976" lon="-76.351649">
        <ele>2.957032</ele>
        <time>2024-10-05T08:43:49.000Z</time>
      </trkpt>
      <trkpt lat="39.352972" lon="-76.35165">
        <ele>2.957021</ele>
        <time>2024-10-05T08:43:49.000Z</time>
      </trkpt>
      <trkpt lat="39.352343" lon="-76.35116">
        <ele>2.666471</ele>
        <time>2024-10-05T08:43:57.000Z</time>
      </trkpt>
      <trkpt lat="39.352206" lon="-76.351158">
        <ele>2.613495</ele>
        <time>2024-10-05T08:43:59.000Z</time>
      </trkpt>
      <trkpt lat="39.352023" lon="-76.35126">
        <ele>2.538406</ele>
        <time>2024-10-05T08:44:01.000Z</time>
      </trkpt>
      <trkpt lat="39.351437" lon="-76.351763">
        <ele>2.369194</ele>
        <time>2024-10-05T08:44:09.000Z</time>
      </trkpt>
      <trkpt lat="39.349928" lon="-76.353156">
        <ele>2.007213</ele>
        <time>2024-10-05T08:44:30.000Z</time>
      </trkpt>
      <trkpt lat="39.349677" lon="-76.353311">
        <ele>1.932088</ele>
        <time>2024-10-05T08:44:33.000Z</time>
      </trkpt>
      <trkpt lat="39.348301" lon="-76.354055">
        <ele>1.567506</ele>
        <time>2024-10-05T08:44:50.000Z</time>
      </trkpt>
      <trkpt lat="39.34769" lon="-76.354439">
        <ele>1.429585</ele>
        <time>2024-10-05T08:44:58.000Z</time>
      </trkpt>
      <trkpt lat="39.347271" lon="-76.354751">
        <ele>1.32752</ele>
        <time>2024-10-05T08:45:03.000Z</time>
      </trkpt>
      <trkpt lat="39.347707" lon="-76.354429">
        <ele>1.395172</ele>
        <time>2024-10-05T08:45:09.000Z</time>
      </trkpt>
      <trkpt lat="39.348306" lon="-76.354054">
        <ele>1.564148</ele>
        <time>2024-10-05T08:45:16.000Z</time>
      </trkpt>
      <trkpt lat="39.34968" lon="-76.353318">
        <ele>1.929079</ele>
        <time>2024-10-05T08:45:33.000Z</time>
      </trkpt>
      <trkpt lat="39.349939" lon="-76.353142">
        <ele>1.99669</ele>
        <time>2024-10-05T08:45:36.000Z</time>
      </trkpt>
      <trkpt lat="39.351446" lon="-76.351752">
        <ele>2.39013</ele>
        <time>2024-10-05T08:45:57.000Z</time>
      </trkpt>
      <trkpt lat="39.352026" lon="-76.351255">
        <ele>2.526097</ele>
        <time>2024-10-05T08:46:05.000Z</time>
      </trkpt>
      <trkpt lat="39.352198" lon="-76.351147">
        <ele>2.596344</ele>
        <time>2024-10-05T08:46:07.000Z</time>
      </trkpt>
      <trkpt lat="39.35234" lon="-76.351162">
        <ele>2.648951</ele>
        <time>2024-10-05T08:46:09.000Z</time>
      </trkpt>
      <trkpt lat="39.352973" lon="-76.351657">
        <ele>2.937405</ele>
        <time>2024-10-05T08:46:17.000Z</time>
      </trkpt>
      <trkpt lat="39.35328" lon="-76.351813">
        <ele>3.066991</ele>
        <time>2024-10-05T08:46:21.000Z</time>
      </trkpt>
      <trkpt lat="39.353539" lon="-76.351808">
        <ele>3.166415</ele>
        <time>2024-10-05T08:46:24.000Z</time>
      </trkpt>
      <trkpt lat="39.353714" lon="-76.351736">
        <ele>3.228948</ele>
        <time>2024-10-05T08:46:26.000Z</time>
      </trkpt>
      <trkpt lat="39.35379" lon="-76.351646">
        <ele>3.229809</ele>
        <time>2024-10-05T08:46:27.000Z</time>
      </trkpt>
      <trkpt lat="39.354144" lon="-76.351201">
        <ele>3.233696</ele>
        <time>2024-10-05T08:46:32.000Z</time>
      </trkpt>
      <trkpt lat="39.354377" lon="-76.351034">
        <ele>3.235797</ele>
        <time>2024-10-05T08:46:35.000Z</time>
      </trkpt>
      <trkpt lat="39.354661" lon="-76.35099">
        <ele>3.238105</ele>
        <time>2024-10-05T08:46:38.000Z</time>
      </trkpt>
      <trkpt lat="39.354842" lon="-76.351073">
        <ele>3.239601</ele>
        <time>2024-10-05T08:46:40.000Z</time>
      </trkpt>
      <trkpt lat="39.355112" lon="-76.351376">
        <ele>3.242534</ele>
        <time>2024-10-05T08:46:44.000Z</time>
      </trkpt>
      <trkpt lat="39.355368" lon="-76.351752">
        <ele>3.103611</ele>
        <time>2024-10-05T08:46:48.000Z</time>
      </trkpt>
      <trkpt lat="39.355561" lon="-76.352213">
        <ele>2.918808</ele>
        <time>2024-10-05T08:46:53.000Z</time>
      </trkpt>
      <trkpt lat="39.355562" lon="-76.352232">
        <ele>2.917335</ele>
        <time>2024-10-05T08:46:53.000Z</time>
      </trkpt>
      <trkpt lat="39.355737" lon="-76.352836">
        <ele>2.689386</ele>
        <time>2024-10-05T08:46:59.000Z</time>
      </trkpt>
      <trkpt lat="39.355837" lon="-76.353081">
        <ele>2.590657</ele>
        <time>2024-10-05T08:47:01.000Z</time>
      </trkpt>
      <trkpt lat="39.356016" lon="-76.353387">
        <ele>2.460341</ele>
        <time>2024-10-05T08:47:04.000Z</time>
      </trkpt>
      <trkpt lat="39.35653" lon="-76.354736">
        <ele>2.10758</ele>
        <time>2024-10-05T08:47:17.000Z</time>
      </trkpt>
      <trkpt lat="39.35664" lon="-76.354976">
        <ele>2.044423</ele>
        <time>2024-10-05T08:47:19.000Z</time>
      </trkpt>
      <trkpt lat="39.356779" lon="-76.355148">
        <ele>1.989675</ele>
        <time>2024-10-05T08:47:21.000Z</time>
      </trkpt>
      <trkpt lat="39.357109" lon="-76.355429">
        <ele>1.920955</ele>
        <time>2024-10-05T08:47:25.000Z</time>
      </trkpt>
      <trkpt lat="39.357486" lon="-76.355623">
        <ele>1.979806</ele>
        <time>2024-10-05T08:47:30.000Z</time>
      </trkpt>
      <trkpt lat="39.357666" lon="-76.355673">
        <ele>2.005382</ele>
        <time>2024-10-05T08:47:32.000Z</time>
      </trkpt>
      <trkpt lat="39.358034" lon="-76.355711">
        <ele>2.057577</ele>
        <time>2024-10-05T08:47:36.000Z</time>
      </trkpt>
      <trkpt lat="39.358331" lon="-76.355824">
        <ele>2.102839</ele>
        <time>2024-10-05T08:47:39.000Z</time>
      </trkpt>
      <trkpt lat="39.358942" lon="-76.356263">
        <ele>2.362201</ele>
        <time>2024-10-05T08:47:47.000Z</time>
      </trkpt>
      <trkpt lat="39.359384" lon="-76.356798">
        <ele>2.820075</ele>
        <time>2024-10-05T08:47:54.000Z</time>
      </trkpt>
      <trkpt lat="39.359664" lon="-76.357078">
        <ele>3.091999</ele>
        <time>2024-10-05T08:47:58.000Z</time>
      </trkpt>
      <trkpt lat="39.360234" lon="-76.357461">
        <ele>3.586757</ele>
        <time>2024-10-05T08:48:05.000Z</time>
      </trkpt>
      <trkpt lat="39.360461" lon="-76.357595">
        <ele>3.848062</ele>
        <time>2024-10-05T08:48:08.000Z</time>
      </trkpt>
      <trkpt lat="39.360914" lon="-76.357781">
        <ele>4.34311</ele>
        <time>2024-10-05T08:48:13.000Z</time>
      </trkpt>
      <trkpt lat="39.361142" lon="-76.357984">
        <ele>4.639833</ele>
        <time>2024-10-05T08:48:16.000Z</time>
      </trkpt>
      <trkpt lat="39.361678" lon="-76.357314">
        <ele>5.409396</ele>
        <time>2024-10-05T08:48:24.000Z</time>
      </trkpt>
      <trkpt lat="39.361843" lon="-76.357085">
        <ele>5.493722</ele>
        <time>2024-10-05T08:48:27.000Z</time>
      </trkpt>
      <trkpt lat="39.362003" lon="-76.356477">
        <ele>5.663712</ele>
        <time>2024-10-05T08:48:33.000Z</time>
      </trkpt>
      <trkpt lat="39.362026" lon="-76.356118">
        <ele>5.758839</ele>
        <time>2024-10-05T08:48:36.000Z</time>
      </trkpt>
      <trkpt lat="39.361985" lon="-76.355772">
        <ele>5.853724</ele>
        <time>2024-10-05T08:48:39.000Z</time>
      </trkpt>
      <trkpt lat="39.361744" lon="-76.355092">
        <ele>5.994602</ele>
        <time>2024-10-05T08:48:45.000Z</time>
      </trkpt>
      <trkpt lat="39.361754" lon="-76.355016">
        <ele>5.979855</ele>
        <time>2024-10-05T08:48:46.000Z</time>
      </trkpt>
      <trkpt lat="39.36169" lon="-76.354834">
        <ele>5.942167</ele>
        <time>2024-10-05T08:48:48.000Z</time>
      </trkpt>
      <trkpt lat="39.36164" lon="-76.3547">
        <ele>5.911971</ele>
        <time>2024-10-05T08:48:49.000Z</time>
      </trkpt>
      <trkpt lat="39.361599" lon="-76.354657">
        <ele>5.898798</ele>
        <time>2024-10-05T08:48:50.000Z</time>
      </trkpt>
      <trkpt lat="39.36153" lon="-76.354447">
        <ele>5.853775</ele>
        <time>2024-10-05T08:48:52.000Z</time>
      </trkpt>
      <trkpt lat="39.361481" lon="-76.353612">
        <ele>5.686791</ele>
        <time>2024-10-05T08:48:59.000Z</time>
      </trkpt>
      <trkpt lat="39.361428" lon="-76.353228">
        <ele>5.608166</ele>
        <time>2024-10-05T08:49:02.000Z</time>
      </trkpt>
      <trkpt lat="39.36145" lon="-76.353034">
        <ele>5.571572</ele>
        <time>2024-10-05T08:49:04.000Z</time>
      </trkpt>
      <trkpt lat="39.361447" lon="-76.352843">
        <ele>5.507061</ele>
        <time>2024-10-05T08:49:06.000Z</time>
      </trkpt>
      <trkpt lat="39.361555" lon="-76.352234">
        <ele>5.266845</ele>
        <time>2024-10-05T08:49:11.000Z</time>
      </trkpt>
      <trkpt lat="39.361561" lon="-76.352229">
        <ele>5.26609</ele>
        <time>2024-10-05T08:49:11.000Z</time>
      </trkpt>
      <trkpt lat="39.361561" lon="-76.352015">
        <ele>5.180313</ele>
        <time>2024-10-05T08:49:13.000Z</time>
      </trkpt>
      <trkpt lat="39.361535" lon="-76.351698">
        <ele>5.059433</ele>
        <time>2024-10-05T08:49:16.000Z</time>
      </trkpt>
      <trkpt lat="39.361465" lon="-76.351425">
        <ele>4.949273</ele>
        <time>2024-10-05T08:49:18.000Z</time>
      </trkpt>
      <trkpt lat="39.361322" lon="-76.351136">
        <ele>4.821443</ele>
        <time>2024-10-05T08:49:21.000Z</time>
      </trkpt>
      <trkpt lat="39.361144" lon="-76.350894">
        <ele>4.694225</ele>
        <time>2024-10-05T08:49:24.000Z</time>
      </trkpt>
      <trkpt lat="39.361034" lon="-76.350753">
        <ele>4.694499</ele>
        <time>2024-10-05T08:49:26.000Z</time>
      </trkpt>
      <trkpt lat="39.360671" lon="-76.350331">
        <ele>4.822347</ele>
        <time>2024-10-05T08:49:31.000Z</time>
      </trkpt>
      <trkpt lat="39.360662" lon="-76.350332">
        <ele>4.823011</ele>
        <time>2024-10-05T08:49:31.000Z</time>
      </trkpt>
      <trkpt lat="39.360336" lon="-76.349886">
        <ele>4.947048</ele>
        <time>2024-10-05T08:49:36.000Z</time>
      </trkpt>
      <trkpt lat="39.360185" lon="-76.349644">
        <ele>5.014192</ele>
        <time>2024-10-05T08:49:39.000Z</time>
      </trkpt>
      <trkpt lat="39.359956" lon="-76.349142">
        <ele>5.128484</ele>
        <time>2024-10-05T08:49:44.000Z</time>
      </trkpt>
      <trkpt lat="39.359866" lon="-76.348828">
        <ele>5.189955</ele>
        <time>2024-10-05T08:49:47.000Z</time>
      </trkpt>
      <trkpt lat="39.359802" lon="-76.348568">
        <ele>5.238251</ele>
        <time>2024-10-05T08:49:49.000Z</time>
      </trkpt>
      <trkpt lat="39.359733" lon="-76.348201">
        <ele>5.303582</ele>
        <time>2024-10-05T08:49:52.000Z</time>
      </trkpt>
      <trkpt lat="39.359715" lon="-76.34785">
        <ele>5.366946</ele>
        <time>2024-10-05T08:49:55.000Z</time>
      </trkpt>
      <trkpt lat="39.359744" lon="-76.347565">
        <ele>5.416231</ele>
        <time>2024-10-05T08:49:57.000Z</time>
      </trkpt>
      <trkpt lat="39.359786" lon="-76.347369">
        <ele>5.452423</ele>
        <time>2024-10-05T08:49:59.000Z</time>
      </trkpt>
      <trkpt lat="39.36004" lon="-76.346751">
        <ele>5.636538</ele>
        <time>2024-10-05T08:50:05.000Z</time>
      </trkpt>
      <trkpt lat="39.36027" lon="-76.346444">
        <ele>5.890299</ele>
        <time>2024-10-05T08:50:09.000Z</time>
      </trkpt>
      <trkpt lat="39.360458" lon="-76.346129">
        <ele>6.128471</ele>
        <time>2024-10-05T08:50:12.000Z</time>
      </trkpt>
      <trkpt lat="39.360557" lon="-76.34589">
        <ele>6.289921</ele>
        <time>2024-10-05T08:50:14.000Z</time>
      </trkpt>
      <trkpt lat="39.360598" lon="-76.345568">
        <ele>6.481447</ele>
        <time>2024-10-05T08:50:17.000Z</time>
      </trkpt>
      <trkpt lat="39.360612" lon="-76.345244">
        <ele>6.666958</ele>
        <time>2024-10-05T08:50:20.000Z</time>
      </trkpt>
      <trkpt lat="39.360452" lon="-76.344469">
        <ele>7.095851</ele>
        <time>2024-10-05T08:50:27.000Z</time>
      </trkpt>
      <trkpt lat="39.360446" lon="-76.344286">
        <ele>7.185584</ele>
        <time>2024-10-05T08:50:29.000Z</time>
      </trkpt>
      <trkpt lat="39.360432" lon="-76.343773">
        <ele>7.437949</ele>
        <time>2024-10-05T08:50:33.000Z</time>
      </trkpt>
      <trkpt lat="39.36053" lon="-76.343231">
        <ele>7.70388</ele>
        <time>2024-10-05T08:50:38.000Z</time>
      </trkpt>
      <trkpt lat="39.360587" lon="-76.34305">
        <ele>7.7996</ele>
        <time>2024-10-05T08:50:40.000Z</time>
      </trkpt>
      <trkpt lat="39.360638" lon="-76.342879">
        <ele>7.898701</ele>
        <time>2024-10-05T08:50:42.000Z</time>
      </trkpt>
      <trkpt lat="39.360852" lon="-76.342504">
        <ele>8.084557</ele>
        <time>2024-10-05T08:50:46.000Z</time>
      </trkpt>
      <trkpt lat="39.360955" lon="-76.342364">
        <ele>8.137392</ele>
        <time>2024-10-05T08:50:48.000Z</time>
      </trkpt>
      <trkpt lat="39.361153" lon="-76.342149">
        <ele>8.224544</ele>
        <time>2024-10-05T08:50:51.000Z</time>
      </trkpt>
      <trkpt lat="39.361258" lon="-76.342081">
        <ele>8.266144</ele>
        <time>2024-10-05T08:50:52.000Z</time>
      </trkpt>
      <trkpt lat="39.361455" lon="-76.342012">
        <ele>8.340248</ele>
        <time>2024-10-05T08:50:54.000Z</time>
      </trkpt>
      <trkpt lat="39.361708" lon="-76.342029">
        <ele>8.429216</ele>
        <time>2024-10-05T08:50:57.000Z</time>
      </trkpt>
      <trkpt lat="39.361922" lon="-76.342074">
        <ele>8.503162</ele>
        <time>2024-10-05T08:50:59.000Z</time>
      </trkpt>
      <trkpt lat="39.362054" lon="-76.342178">
        <ele>8.55215</ele>
        <time>2024-10-05T08:51:01.000Z</time>
      </trkpt>
      <trkpt lat="39.362252" lon="-76.342408">
        <ele>8.646291</ele>
        <time>2024-10-05T08:51:04.000Z</time>
      </trkpt>
      <trkpt lat="39.362338" lon="-76.342659">
        <ele>8.6975848524</ele>
        <time>2024-10-05T08:51:06.000Z</time>
      </trkpt>
      <trkpt lat="39.362397" lon="-76.342825">
        <ele>8.73171937807</ele>
        <time>2024-10-05T08:51:08.000Z</time>
      </trkpt>
      <trkpt lat="39.362398" lon="-76.342987">
        <ele>8.76198734976</ele>
        <time>2024-10-05T08:51:09.000Z</time>
      </trkpt>
      <trkpt lat="39.362736" lon="-76.342944">
        <ele>8.8440599351</ele>
        <time>2024-10-05T08:51:13.000Z</time>
      </trkpt>
      <trkpt lat="39.362875" lon="-76.342809">
        <ele>8.88606507959</ele>
        <time>2024-10-05T08:51:15.000Z</time>
      </trkpt>
      <trkpt lat="39.362958" lon="-76.34262">
        <ele>8.92667508554</ele>
        <time>2024-10-05T08:51:17.000Z</time>
      </trkpt>
      <trkpt lat="39.362813" lon="-76.342519">
        <ele>8.96647269322</ele>
        <time>2024-10-05T08:51:19.000Z</time>
      </trkpt>
      <trkpt lat="39.362671" lon="-76.342385">
        <ele>9.00894940622</ele>
        <time>2024-10-05T08:51:21.000Z</time>
      </trkpt>
      <trkpt lat="39.362673" lon="-76.342269">
        <ele>9.03062738098</ele>
        <time>2024-10-05T08:51:22.000Z</time>
      </trkpt>
      <trkpt lat="39.362681" lon="-76.342215">
        <ele>9.04089989203</ele>
        <time>2024-10-05T08:51:22.000Z</time>
      </trkpt>
    </trkseg>
  </trk>
</gpx>

<!--
Performance optimized by W3 Total Cache. Learn more: https://www.boldgrid.com/w3-total-cache/?utm_source=w3tc&utm_medium=footer_comment&utm_campaign=free_plugin

Page Caching using Disk: Enhanced{w3tc_pagecache_reject_reason} 

Served from: www.aquabike.world @ 2026-05-10 21:35:35 by W3 Total Cache
-->